Data for 06/11/2009

Time Sea-Level Adjusted Pressure Absolute Pressure Temperature Relative Humidity Dew Point   
(mb) (inHg) (mb) (inHg) (C) (F) (%) (C) (F)
00:05 1016 30 845 24.95 9.5 49.1 64 3.1 37.5
00:10 1016 30 845 24.95 9.5 49.1 64 3.1 37.5
00:15 1016 30 845 24.95 9.5 49.1 64 3 37.4
00:20 1016 30 845 24.95 9.6 49.2 64 3.1 37.6
00:25 1016 30 845 24.95 9.4 48.9 65 3.1 37.6
00:30 1016 30 845 24.95 9.4 48.8 64 3 37.4
00:35 1016 30 845 24.95 9.3 48.7 65 3.1 37.5
00:40 1016 30 845 24.95 9.2 48.6 65 3 37.4
00:45 1016 30 845 24.95 9.2 48.6 65 3.1 37.5
00:50 1016 30 845 24.95 9.1 48.3 66 3.1 37.5
00:55 1016 30 845 24.95 8.9 48 66 3 37.5
01:00 1016 30 845 24.95 8.9 48 66 2.9 37.2
01:05 1016 30 845 24.95 8.9 48.1 66 2.9 37.2
01:10 1016 30 845 24.95 9 48.1 66 3 37.3
01:15 1016 30 845 24.95 8.9 48 66 2.9 37.2
01:20 1016 30 845 24.95 8.9 48 66 3 37.3
01:25 1016 30 845 24.95 8.7 47.6 67 3 37.4
01:30 1016 30 845 24.95 8.5 47.4 68 3 37.4
01:35 1016 30 845 24.95 8.5 47.3 68 2.9 37.2
01:40 1016 30 845 24.95 8.6 47.4 68 3 37.3
01:45 1016 30 845 24.95 8.6 47.5 67 2.9 37.2
01:50 1016 30 845 24.95 8.7 47.6 67 2.9 37.2
01:55 1016 30 845 24.95 8.7 47.7 67 2.9 37.2
02:00 1016 30 845 24.95 8.7 47.6 67 2.9 37.2
02:05 1016 30 845 24.95 8.6 47.5 67 2.8 37.1
02:10 1016 30 845 24.95 8.6 47.4 67 2.9 37.2
02:15 1016 30 845 24.95 8.4 47.2 68 2.9 37.1
02:20 1016 30 845 24.95 8.3 46.9 69 2.9 37.3
02:25 1016 30 845 24.95 8.1 46.6 70 2.9 37.2
02:30 1016 30 845 24.95 7.9 46.3 70 2.9 37.2
02:35 1016 30 845 24.95 7.8 46.1 70 2.8 37
02:40 1016 30 845 24.95 7.8 46 71 2.9 37.2
02:45 1016 30 845 24.95 7.6 45.7 72 2.9 37.1
02:50 1016 30 845 24.95 7.5 45.4 72 2.8 37.1
02:55 1016 30 845 24.95 7.3 45.2 73 2.8 37
03:00 1016 30 845 24.95 7.4 45.3 72 2.7 36.9
03:05 1016 30 845 24.95 7.3 45.1 73 2.9 37.2
03:10 1016 30 845 24.95 7.2 44.9 74 2.8 37
03:15 1016 30 845 24.95 7.2 45 73 2.7 36.9
03:20 1016 30 845 24.95 7.2 45 73 2.8 37
03:25 1016 30 845 24.95 7.1 44.8 74 2.8 37
03:30 1016 30 845 24.95 7.1 44.8 73 2.7 36.8
03:35 1016 30 845 24.95 7.1 44.8 74 2.7 36.9
03:40 1016 30 845 24.95 7 44.7 74 2.7 36.9
03:45 1016 30 845 24.95 7 44.6 74 2.7 36.9
03:50 1016 30 845 24.95 7 44.6 74 2.7 36.8
03:55 1016 30 845 24.95 6.9 44.5 74 2.7 36.8
04:00 1016 30 845 24.95 6.7 44.1 75 2.7 36.8
04:05 1016 30 845 24.95 6.6 43.8 76 2.6 36.7
04:10 1016 30 845 24.95 6.5 43.6 76 2.6 36.6
04:15 1016 30 845 24.95 6.3 43.3 77 2.5 36.5
04:20 1016 30 845 24.95 6.2 43.1 77 2.5 36.5
04:25 1016 30 845 24.95 6 42.9 78 2.4 36.4
04:30 1016 30 845 24.95 6 42.8 78 2.4 36.3
04:35 1016 30 845 24.95 6.1 42.9 78 2.5 36.4
04:40 1016 30 845 24.95 6.1 43 77 2.4 36.3
04:45 1016 30 845 24.95 6.1 43 78 2.5 36.5
04:50 1016 30 845 24.95 6 42.8 78 2.4 36.4
04:55 1016 30 845 24.95 6 42.7 79 2.5 36.6
05:00 1016 30 845 24.95 5.9 42.5 78 2.4 36.3
05:05 1016 30 845 24.95 5.7 42.3 79 2.4 36.4
05:10 1016 30 845 24.95 5.6 42.1 80 2.4 36.3
05:15 1016 30 845 24.95 5.4 41.7 81 2.4 36.2
05:20 1016 30 845 24.95 5.4 41.6 81 2.3 36.2
05:25 1016 30 845 24.95 5.4 41.7 80 2.2 36
05:30 1016 30 845 24.95 5.3 41.6 80 2.2 36
05:35 1016 30 845 24.95 5.4 41.7 80 2.1 35.9
05:40 1016 30 845 24.95 5.4 41.8 79 2.1 35.8
05:45 1016 30 845 24.95 5.5 41.8 79 2.2 35.9
05:50 1016 30 845 24.95 5.2 41.3 80 2 35.7
05:55 1016 30 845 24.95 5 40.9 80 1.8 35.2
06:00 1016 30 845 24.95 4.9 40.8 81 1.8 35.3
06:05 1016 30 845 24.95 5 40.9 79 1.7 35
06:10 1016 30 845 24.95 5.3 41.5 78 1.7 35.1
06:15 1016 30 846 24.98 5.4 41.7 77 1.7 35
06:20 1016 30 846 24.98 5.4 41.8 76 1.6 34.9
06:25 1016 30 846 24.98 5.7 42.3 75 1.7 35
06:30 1016 30 846 24.98 6 42.7 74 1.6 34.9
06:35 1016 30 846 24.98 6 42.8 74 1.6 34.9
06:40 1017 30.03 846 24.98 5.9 42.6 75 1.8 35.2
06:45 1017 30.03 846 24.98 6.1 42.9 74 1.8 35.3
06:50 1017 30.03 846 24.98 6.3 43.3 74 2 35.5
06:55 1017 30.03 846 24.98 6.3 43.4 74 2 35.7
07:00 1017 30.03 846 24.98 6.3 43.4 73 1.9 35.5
07:05 1017 30.03 846 24.98 6.4 43.5 73 2 35.6
07:10 1016 30 846 24.98 6.5 43.7 72 1.8 35.3
07:15 1017 30.03 846 24.98 6.6 44 72 2.1 35.7
07:20 1016 30 846 24.98 7 44.6 71 2.2 35.9
07:25 1016 30 846 24.98 7.5 45.4 69 2.2 35.9
07:30 1017 30.03 846 24.98 7.9 46.2 68 2.4 36.3
07:35 1017 30.03 846 24.98 8.5 47.2 66 2.5 36.5
07:40 1016 30 846 24.98 8.4 47.2 68 2.8 37
07:45 1016 30 846 24.98 8.8 47.9 67 3 37.4
07:50 1016 30 846 24.98 9.1 48.4 65 2.8 37
07:55 1016 30 846 24.98 9.7 49.4 64 3.1 37.6
08:00 1016 30 846 24.98 9.9 49.8 63 3.2 37.8
08:05 1016 30 846 24.98 10 50 62 3.1 37.6
08:10 1017 30.03 846 24.98 10.2 50.3 62 3.2 37.8
08:15 1017 30.03 846 24.98 10.7 51.3 60 3.2 37.8
08:20 1017 30.03 846 24.98 11.1 52 58 3.1 37.7
08:25 1017 30.03 846 24.98 11.3 52.3 58 3.3 38
08:30 1017 30.03 846 24.98 11.3 52.3 58 3.3 38
08:35 1017 30.03 846 24.98 11.3 52.4 58 3.5 38.3
08:40 1017 30.03 846 24.98 11.8 53.3 54 2.9 37.2
08:45 1017 30.03 846 24.98 11.4 52.4 57 3.2 37.8
08:50 1017 30.03 846 24.98 11.8 53.2 53 2.7 36.8
08:55 1017 30.03 846 24.98 11.4 52.5 54 2.5 36.5
09:00 1017 30.03 846 24.98 11.6 52.8 53 2.5 36.4
09:05 1017 30.03 846 24.98 12 53.5 53 2.8 37.1
09:10 1017 30.03 846 24.98 11.8 53.3 55 3 37.5
09:15 1017 30.03 846 24.98 11.2 52.2 57 3 37.3
09:20 1017 30.03 846 24.98 11.5 52.7 54 2.5 36.4
09:25 1016 30 846 24.98 12.6 54.7 52 3 37.4
09:30 1016 30 846 24.98 13 55.5 50 2.9 37.1
09:35 1016 30 846 24.98 12.2 54 54 3.3 38
09:40 1016 30 846 24.98 12.7 54.9 49 2.5 36.5
09:45 1016 30 846 24.98 12.5 54.5 52 3 37.4
09:50 1016 30 846 24.98 12.6 54.7 50 2.6 36.7
09:55 1016 30 846 24.98 13.7 56.6 47 2.8 37
10:00 1016 30 846 24.98 13.6 56.6 51 3.8 38.8
10:05 1016 30 846 24.98 13.8 56.8 47 2.8 37
10:10 1016 30 846 24.98 14.1 57.5 49 3.7 38.6
10:15 1016 30 845 24.95 14.6 58.3 47 3.5 38.3
10:20 1016 30 845 24.95 14.6 58.3 49 4.2 39.6
10:25 1016 30 845 24.95 13.8 56.8 48 3 37.4
10:30 1016 30 845 24.95 13.5 56.4 50 3.3 37.9
10:35 1016 30 845 24.95 14.5 58.1 46 3.1 37.5
10:40 1016 30 845 24.95 15.6 60.1 45 3.8 38.9
10:45 1016 30 845 24.95 15.6 60.1 43 3.3 38
10:50 1016 30 845 24.95 15.5 59.8 43 3.2 37.7
10:55 1016 30 845 24.95 15.5 60 43 3 37.4
11:00 1016 30 845 24.95 15.8 60.4 42 3 37.4
11:05 1016 30 845 24.95 15.7 60.2 40 2.3 36.1
11:10 1016 30 845 24.95 15.6 60.1 42 2.8 37.1
11:15 1016 30 845 24.95 15.9 60.6 40 2.5 36.5
11:20 1016 30 845 24.95 16.3 61.3 40 2.8 37
11:25 1016 30 845 24.95 16.6 62 40 3.2 37.8
11:30 1016 30 845 24.95 16.7 62 40 3.1 37.6
11:35 1016 30 845 24.95 16.9 62.3 38 2.7 36.8
11:40 1016 30 845 24.95 16.4 61.4 41 3.1 37.6
11:45 1016 30 845 24.95 16.9 62.5 39 2.9 37.3
11:50 1016 30 845 24.95 17.1 62.8 39 3.1 37.7
11:55 1016 30 845 24.95 16.5 61.7 40 2.9 37.2
12:00 1016 30 845 24.95 17.6 63.6 34 1.6 35
12:05 1016 30 845 24.95 17.8 64 37 3.2 37.8
12:10 1016 30 845 24.95 16.3 61.4 40 2.8 37.1
12:15 1016 30 845 24.95 17 62.6 38 2.8 37.1
12:20 1016 30 845 24.95 17.1 62.8 36 2.2 35.9
12:25 1016 30 845 24.95 17.6 63.6 32 0.8 33.4
12:30 1016 30 845 24.95 17.3 63.2 36 2.2 35.9
12:35 1016 30 845 24.95 17.7 63.8 33 1.5 34.8
12:40 1016 30 845 24.95 16.8 62.3 38 2.4 36.4
12:45 1016 30 845 24.95 15.7 60.3 38 1.5 34.7
12:50 1016 30 845 24.95 16.8 62.3 35 1.4 34.6
12:55 1016 30 845 24.95 17.8 64.1 32 1.1 34
13:00 1015 29.97 845 24.95 17.8 64 32 0.9 33.6
13:05 1015 29.97 845 24.95 18 64.4 33 1.6 34.8
13:10 1015 29.97 845 24.95 18.3 64.9 30 0.5 32.9
13:15 1015 29.97 845 24.95 18 64.3 32 1 33.8
13:20 1015 29.97 845 24.95 18.6 65.5 29 0.4 32.7
13:25 1015 29.97 845 24.95 19 66.2 28 0.1 32.1
13:30 1015 29.97 844 24.92 19.2 66.5 28 0.5 32.9
13:35 1015 29.97 844 24.92 17.2 63 31 0.2 32.4
13:40 1015 29.97 844 24.92 18.3 65 30 0.4 32.6
13:45 1015 29.97 844 24.92 18.6 65.6 28 0.1 32.3
13:50 1015 29.97 844 24.92 18.2 64.8 29 0 32.1
13:55 1015 29.97 844 24.92 18.5 65.3 27 -0.8 30.6
14:00 1015 29.97 844 24.92 19.2 66.6 26 -0.5 31.1
14:05 1015 29.97 844 24.92 19.1 66.4 26 -0.9 30.5
14:10 1015 29.97 844 24.92 17.7 63.8 28 -0.9 30.4
14:15 1015 29.97 844 24.92 19.2 66.5 25 -1.1 30.1
14:20 1015 29.97 844 24.92 19.9 67.8 25 -0.8 30.6
14:25 1015 29.97 844 24.92 19.9 67.9 26 -0.2 31.7
14:30 1015 29.97 844 24.92 20 67.9 29 1.5 34.7
14:35 1015 29.97 844 24.92 18.4 65.2 36 3.2 37.8
14:40 1015 29.97 844 24.92 17.3 63.2 36 2.1 35.9
14:45 1015 29.97 844 24.92 16.9 62.4 37 2.1 35.9
14:50 1015 29.97 844 24.92 16.1 60.9 37 1.6 34.9
14:55 1015 29.97 844 24.92 16.4 61.5 35 1 33.7
15:00 1015 29.97 844 24.92 17.1 62.8 32 0.4 32.7
15:05 1015 29.97 844 24.92 17.2 63 33 0.9 33.6
15:10 1015 29.97 844 24.92 16.6 61.9 34 0.7 33.3
15:15 1015 29.97 844 24.92 17.2 63 33 1 33.8
15:20 1015 29.97 844 24.92 17 62.5 32 0.3 32.5
15:25 1015 29.97 844 24.92 17.8 64 30 0.1 32.1
15:30 1015 29.97 844 24.92 17.8 64.1 30 0.2 32.3
15:35 1015 29.97 844 24.92 17.9 64.2 28 -0.9 30.5
15:40 1015 29.97 844 24.92 18.1 64.5 29 -0.2 31.6
15:45 1015 29.97 844 24.92 18.4 65 27 -0.6 30.9
15:50 1015 29.97 844 24.92 18.5 65.2 28 -0.1 31.8
15:55 1015 29.97 844 24.92 18.4 65.2 27 -0.7 30.7
16:00 1015 29.97 844 24.92 18.8 65.8 30 1 33.9
16:05 1015 29.97 844 24.92 17 62.6 33 0.7 33.3
16:10 1015 29.97 844 24.92 16.4 61.5 33 0.3 32.6
16:15 1015 29.97 844 24.92 16.2 61.2 32 -0.3 31.5
16:20 1015 29.97 844 24.92 16.2 61.2 31 -0.9 30.5
16:25 1015 29.97 844 24.92 16.2 61.1 30 -1.3 29.6
16:30 1015 29.97 844 24.92 16.4 61.6 27 -2.4 27.6
16:35 1014 29.94 844 24.92 17.1 62.9 26 -2.4 27.7
16:40 1014 29.94 844 24.92 18.9 66.1 23 -2.3 27.8
16:45 1014 29.94 844 24.92 19.2 66.6 24 -1.4 29.4
16:50 1014 29.94 844 24.92 18 64.5 26 -1.4 29.5
16:55 1014 29.94 843 24.89 18.4 65.1 27 -0.8 30.6
17:00 1014 29.94 843 24.89 18.2 64.8 27 -0.7 30.7
17:05 1014 29.94 843 24.89 17.9 64.1 29 -0.4 31.2
17:10 1014 29.94 843 24.89 18.1 64.6 29 0 32.1
17:15 1014 29.94 843 24.89 18.3 65 29 0.3 32.5
17:20 1014 29.94 843 24.89 18.4 65.1 29 -0 32
17:25 1014 29.94 843 24.89 18.3 64.9 29 0 32
17:30 1014 29.94 843 24.89 17.4 63.4 31 0.4 32.7
17:35 1014 29.94 843 24.89 17.2 62.9 30 -0.3 31.4
17:40 1014 29.94 843 24.89 17.7 63.8 26 -1.7 28.9
17:45 1014 29.94 843 24.89 18.3 64.9 27 -0.8 30.6
17:50 1014 29.94 843 24.89 18.3 64.9 27 -1.1 30
17:55 1014 29.94 843 24.89 18.1 64.5 26 -1.6 29.2
18:00 1014 29.94 843 24.89 18.4 65.1 25 -1.6 29.1
18:05 1014 29.94 843 24.89 19.5 67.1 22 -2.6 27.2
18:10 1014 29.94 843 24.89 19.1 66.4 25 -1 30.1
18:15 1014 29.94 843 24.89 18.8 65.9 26 -0.8 30.6
18:20 1014 29.94 843 24.89 18.3 65 26 -1.5 29.2
18:25 1014 29.94 843 24.89 18.3 64.9 25 -1.9 28.6
18:30 1014 29.94 843 24.89 18 64.4 26 -1.7 28.9
18:35 1014 29.94 843 24.89 18.4 65.1 26 -1.2 29.8
18:40 1014 29.94 843 24.89 18.4 65.1 26 -1.5 29.3
18:45 1014 29.94 843 24.89 18.4 65.1 26 -1.4 29.5
18:50 1014 29.94 843 24.89 18.2 64.7 26 -1.6 29.2
18:55 1014 29.94 843 24.89 18.8 65.9 26 -0.7 30.7
19:00 1014 29.94 844 24.92 17.9 64.2 29 -0.1 31.8
19:05 1014 29.94 844 24.92 17.6 63.6 30 0.1 32.2
19:10 1014 29.94 844 24.92 17.9 64.3 30 0.2 32.3
19:15 1014 29.94 844 24.92 17.8 64 30 0.3 32.5
19:20 1014 29.94 844 24.92 17.5 63.5 32 0.6 33
19:25 1014 29.94 844 24.92 17.1 62.7 33 0.7 33.2
19:30 1014 29.94 844 24.92 16.6 61.9 34 1 33.8
19:35 1015 29.97 844 24.92 16.6 61.8 33 0.5 32.8
19:40 1015 29.97 844 24.92 16.4 61.5 33 0.4 32.7
19:45 1015 29.97 844 24.92 16.2 61.1 33 0.2 32.3
19:50 1015 29.97 844 24.92 16.1 60.9 35 0.5 33
19:55 1015 29.97 844 24.92 16 60.8 35 0.8 33.4
20:00 1015 29.97 844 24.92 15.9 60.6 36 1 33.8
20:05 1015 29.97 844 24.92 15.8 60.5 38 1.7 35
20:10 1015 29.97 844 24.92 15.6 60.1 40 2 35.6
20:15 1015 29.97 844 24.92 15.4 59.8 39 1.6 34.8
20:20 1015 29.97 844 24.92 15.3 59.6 40 1.8 35.2
20:25 1015 29.97 844 24.92 15.2 59.4 38 1.2 34.2
20:30 1015 29.97 844 24.92 15.1 59.2 39 1.4 34.5
20:35 1015 29.97 844 24.92 15 59 39 1.2 34.2
20:40 1015 29.97 844 24.92 14.9 58.9 38 0.9 33.7
20:45 1015 29.97 844 24.92 14.9 58.8 39 1 33.8
20:50 1015 29.97 844 24.92 14.8 58.6 40 1.4 34.5
20:55 1015 29.97 844 24.92 14.7 58.4 40 1.5 34.6
21:00 1015 29.97 844 24.92 14.6 58.3 41 1.6 34.9
21:05 1015 29.97 844 24.92 14.5 58 43 2.1 35.8
21:10 1015 29.97 844 24.92 14.2 57.6 44 2.3 36.2
21:15 1015 29.97 844 24.92 14.1 57.3 46 2.6 36.7
21:20 1015 29.97 845 24.95 13.9 56.9 46 2.5 36.6
21:25 1015 29.97 845 24.95 13.8 56.8 47 2.7 36.8
21:30 1015 29.97 845 24.95 13.7 56.6 47 2.7 36.9
21:35 1016 30 845 24.95 13.6 56.6 46 2.4 36.3
21:40 1016 30 845 24.95 13.7 56.6 46 2.4 36.3
21:45 1016 30 845 24.95 13.6 56.6 46 2.3 36.2
21:50 1016 30 845 24.95 13.7 56.6 45 2.1 35.8
21:55 1016 30 845 24.95 13.6 56.5 46 2.3 36.1
22:00 1016 30 845 24.95 13.5 56.3 46 2.1 35.9
22:05 1016 30 845 24.95 13.4 56.2 46 2 35.7
22:10 1016 30 845 24.95 13.3 56 46 2.1 35.8
22:15 1016 30 845 24.95 13.2 55.8 46 2.1 35.7
22:20 1016 30 845 24.95 13.2 55.7 47 2.1 35.7
22:25 1016 30 845 24.95 13.1 55.5 47 2.1 35.8
22:30 1016 30 845 24.95 13 55.4 47 2.1 35.8
22:35 1016 30 845 24.95 12.8 55.1 48 2.1 35.8
22:40 1016 30 845 24.95 12.7 54.9 48 2.1 35.8
22:45 1016 30 845 24.95 12.6 54.7 49 2.2 35.9
22:50 1016 30 845 24.95 12.5 54.5 50 2.3 36.2
22:55 1016 30 845 24.95 12.4 54.2 50 2.3 36.1
23:00 1016 30 845 24.95 12.3 54.1 50 2.2 35.9
23:05 1016 30 845 24.95 12.4 54.2 50 2.2 35.9
23:10 1016 30 845 24.95 12.4 54.2 50 2.3 36.1
23:15 1016 30 845 24.95 12.3 54.2 50 2.2 36
23:20 1016 30 845 24.95 12.4 54.3 50 2.2 36
23:25 1016 30 845 24.95 12.3 54.2 50 2.4 36.2
23:30 1016 30 845 24.95 12.3 54.1 50 2.3 36.2
23:35 1016 30 845 24.95 12.3 54.1 51 2.4 36.4
23:40 1016 30 845 24.95 12.2 54 51 2.5 36.4
23:45 1016 30 845 24.95 12.1 53.7 52 2.5 36.5
23:50 1016 30 845 24.95 12 53.6 52 2.5 36.5
23:55 1016 30 845 24.95 11.9 53.5 52 2.5 36.6
24:00 1016 30 845 24.95 11.9 53.3 53 2.7 36.8